createdAt,value
2022-08-01T00:00:10.088Z,18.51
2022-08-01T00:02:40.914Z,18.51
2022-08-01T00:05:09.822Z,18.57
2022-08-01T00:07:37.545Z,18.67
2022-08-01T00:10:08.911Z,18.69
2022-08-01T00:12:36.010Z,18.62
2022-08-01T00:15:03.969Z,18.57
2022-08-01T00:17:30.758Z,18.54
2022-08-01T00:19:57.544Z,18.55
2022-08-01T00:22:24.306Z,18.57
2022-08-01T00:24:51.086Z,18.58
2022-08-01T00:27:17.885Z,18.53
2022-08-01T00:30:10.989Z,18.47
2022-08-01T00:32:32.542Z,18.43
2022-08-01T00:34:59.533Z,18.53
2022-08-01T00:37:26.381Z,18.54
2022-08-01T00:39:53.335Z,18.54
2022-08-01T00:42:20.088Z,18.52
2022-08-01T00:44:47.192Z,18.47
2022-08-01T00:47:14.045Z,18.41
2022-08-01T00:49:41.384Z,18.43
2022-08-01T00:52:10.015Z,18.41
2022-08-01T00:54:37.073Z,18.41
2022-08-01T00:57:04.321Z,18.42
2022-08-01T00:59:31.695Z,18.46
2022-08-01T01:01:58.880Z,18.43
2022-08-01T01:04:25.900Z,18.42
2022-08-01T01:07:07.394Z,18.39
2022-08-01T01:09:43.259Z,18.42
2022-08-01T01:12:23.518Z,18.38
2022-08-01T01:15:37.355Z,18.36
2022-08-01T01:18:04.124Z,18.34
2022-08-01T01:20:58.032Z,18.32
2022-08-01T01:24:02.259Z,18.33
2022-08-01T01:26:38.942Z,18.30
2022-08-01T01:29:05.645Z,18.26
2022-08-01T01:31:37.505Z,18.22
2022-08-01T01:34:06.367Z,18.24
2022-08-01T01:36:34.947Z,18.21
2022-08-01T01:39:02.139Z,18.21
2022-08-01T01:41:31.095Z,18.20
2022-08-01T01:43:59.381Z,18.19
2022-08-01T01:46:28.212Z,18.17
2022-08-01T01:48:57.874Z,18.20
2022-08-01T01:51:28.150Z,18.18
2022-08-01T01:53:56.302Z,18.14
2022-08-01T01:56:24.895Z,18.12
2022-08-01T01:58:55.792Z,18.10
2022-08-01T02:02:04.971Z,18.10
2022-08-01T02:04:14.353Z,18.13
2022-08-01T02:06:42.151Z,18.11
2022-08-01T02:09:10.748Z,18.11
2022-08-01T02:12:07.439Z,18.10
2022-08-01T02:14:28.789Z,18.12
2022-08-01T02:16:58.878Z,18.09
2022-08-01T02:19:26.080Z,18.10
2022-08-01T02:22:01.606Z,18.11
2022-08-01T02:24:45.973Z,18.08
2022-08-01T02:27:22.405Z,18.09
2022-08-01T02:30:02.396Z,18.04
2022-08-01T02:32:37.555Z,18.04
2022-08-01T02:35:08.810Z,18.05
2022-08-01T02:37:44.281Z,18.11
2022-08-01T02:40:14.229Z,18.05
2022-08-01T02:42:46.387Z,18.10
2022-08-01T02:45:14.812Z,18.12
2022-08-01T02:47:43.108Z,18.06
2022-08-01T02:50:12.566Z,18.14
2022-08-01T02:52:41.302Z,18.10
2022-08-01T02:55:09.450Z,18.14
2022-08-01T02:57:52.034Z,18.11
2022-08-01T03:00:19.983Z,18.11
2022-08-01T03:02:49.631Z,18.15
2022-08-01T03:05:18.162Z,18.17
2022-08-01T03:07:46.041Z,18.17
2022-08-01T03:10:17.349Z,18.24
2022-08-01T03:12:46.975Z,18.32
2022-08-01T03:15:16.460Z,18.29
2022-08-01T03:17:46.819Z,18.25
2022-08-01T03:20:16.203Z,18.29
2022-08-01T03:22:44.991Z,18.35
2022-08-01T03:25:14.614Z,18.33
2022-08-01T03:27:43.648Z,18.33
2022-08-01T03:30:11.559Z,18.32
2022-08-01T03:32:38.547Z,18.38
2022-08-01T03:35:05.971Z,18.36
2022-08-01T03:37:54.559Z,18.39
2022-08-01T03:40:53.312Z,18.42
2022-08-01T03:43:51.903Z,18.44
2022-08-01T03:46:21.888Z,18.40
2022-08-01T03:48:56.767Z,18.36
2022-08-01T03:51:24.373Z,18.35
2022-08-01T03:53:52.560Z,18.36
2022-08-01T03:56:20.801Z,18.37
2022-08-01T03:58:50.044Z,18.41
2022-08-01T04:01:18.567Z,18.38
2022-08-01T04:03:45.787Z,18.38
2022-08-01T04:06:15.040Z,18.39
2022-08-01T04:08:42.659Z,18.37
2022-08-01T04:11:10.670Z,18.37
2022-08-01T04:13:38.323Z,18.41
2022-08-01T04:16:06.035Z,18.41
2022-08-01T04:18:33.168Z,18.41
2022-08-01T04:21:00.128Z,18.46
2022-08-01T04:23:28.887Z,18.48
2022-08-01T04:25:57.431Z,18.46
2022-08-01T04:28:25.755Z,18.51
2022-08-01T04:31:01.195Z,18.44
2022-08-01T04:33:30.969Z,18.48
2022-08-01T04:36:04.745Z,18.54
2022-08-01T04:38:34.414Z,18.57
2022-08-01T04:41:09.465Z,18.59
2022-08-01T04:43:40.152Z,18.58
2022-08-01T04:46:08.236Z,18.54
2022-08-01T04:48:38.332Z,18.55
2022-08-01T04:51:05.596Z,18.54
2022-08-01T04:53:33.408Z,18.61
2022-08-01T04:56:00.148Z,18.62
2022-08-01T04:58:26.931Z,18.54
2022-08-01T05:00:53.643Z,18.59
2022-08-01T05:03:20.382Z,18.63
2022-08-01T05:05:47.066Z,18.70
2022-08-01T05:08:13.766Z,18.71
2022-08-01T05:10:40.590Z,18.70
2022-08-01T05:13:07.564Z,18.69
2022-08-01T05:15:37.666Z,18.74
2022-08-01T05:18:04.919Z,18.74
2022-08-01T05:20:31.770Z,18.76
2022-08-01T05:22:58.500Z,18.83
2022-08-01T05:25:33.065Z,18.86
2022-08-01T05:28:12.885Z,18.82
2022-08-01T05:30:46.195Z,18.94
2022-08-01T05:33:13.117Z,18.92
2022-08-01T05:35:48.321Z,19.01
2022-08-01T05:38:16.045Z,18.99
2022-08-01T05:40:42.733Z,18.99
2022-08-01T05:43:09.455Z,19.06
2022-08-01T05:45:36.255Z,19.07
2022-08-01T05:48:03.011Z,19.12
2022-08-01T05:50:29.889Z,19.10
2022-08-01T05:52:56.678Z,19.21
2022-08-01T05:55:23.483Z,19.33
2022-08-01T05:57:50.222Z,19.27
2022-08-01T06:00:17.148Z,19.31
2022-08-01T06:02:44.410Z,19.22
2022-08-01T06:05:13.423Z,19.15
2022-08-01T06:07:41.242Z,19.11
2022-08-01T06:10:09.190Z,19.29
2022-08-01T06:12:36.780Z,19.35
2022-08-01T06:15:07.209Z,19.29
2022-08-01T06:17:34.085Z,19.46
2022-08-01T06:20:00.993Z,19.54
2022-08-01T06:22:28.023Z,19.62
2022-08-01T06:24:54.783Z,19.60
2022-08-01T06:27:22.679Z,19.57
2022-08-01T06:29:50.539Z,19.73
2022-08-01T06:32:26.402Z,19.90
2022-08-01T06:34:54.146Z,19.90
2022-08-01T06:37:20.965Z,19.94
2022-08-01T06:39:47.860Z,19.99
2022-08-01T06:42:15.829Z,19.95
2022-08-01T06:44:42.687Z,19.85
2022-08-01T06:47:09.397Z,19.96
2022-08-01T06:49:36.276Z,19.97
2022-08-01T06:52:04.994Z,19.91
2022-08-01T06:54:32.052Z,19.86
2022-08-01T06:56:58.859Z,19.81
2022-08-01T06:59:25.605Z,19.62
2022-08-01T07:01:52.389Z,19.55
2022-08-01T07:04:19.097Z,19.51
2022-08-01T07:06:45.862Z,19.36
2022-08-01T07:09:14.648Z,19.46
2022-08-01T07:11:41.966Z,19.42
2022-08-01T07:14:08.943Z,19.47
2022-08-01T07:16:35.907Z,19.42
2022-08-01T07:19:02.709Z,19.50
2022-08-01T07:21:39.286Z,19.55
2022-08-01T07:24:14.532Z,19.65
2022-08-01T07:26:53.357Z,19.70
2022-08-01T07:29:30.449Z,19.89
2022-08-01T07:31:58.484Z,20.07
2022-08-01T07:34:26.036Z,20.12
2022-08-01T07:36:54.028Z,20.04
2022-08-01T07:39:21.012Z,20.27
2022-08-01T07:42:06.716Z,20.26
2022-08-01T07:44:34.950Z,20.29
2022-08-01T07:47:01.881Z,20.25
2022-08-01T07:49:28.828Z,20.17
2022-08-01T07:52:13.668Z,20.06
2022-08-01T07:54:40.533Z,20.25
2022-08-01T07:57:08.144Z,20.33
2022-08-01T07:59:35.160Z,20.39
2022-08-01T08:02:02.181Z,20.56
2022-08-01T08:04:29.193Z,20.40
2022-08-01T08:06:56.051Z,20.59
2022-08-01T08:09:22.976Z,20.45
2022-08-01T08:11:50.133Z,20.31
2022-08-01T08:14:17.801Z,20.60
2022-08-01T08:16:44.931Z,20.62
2022-08-01T08:19:12.499Z,20.83
2022-08-01T08:21:39.525Z,20.85
2022-08-01T08:24:26.838Z,20.91
2022-08-01T08:26:59.186Z,20.68
2022-08-01T08:29:28.079Z,20.75
2022-08-01T08:31:57.194Z,20.72
2022-08-01T08:34:25.199Z,20.84
2022-08-01T08:36:52.800Z,20.71
2022-08-01T08:39:20.725Z,20.95
2022-08-01T08:41:49.613Z,20.99
2022-08-01T08:44:18.080Z,21.02
2022-08-01T08:46:54.184Z,21.01
2022-08-01T08:49:27.860Z,21.07
2022-08-01T08:52:05.373Z,21.28
2022-08-01T08:54:33.805Z,21.32
2022-08-01T08:57:02.416Z,21.38
2022-08-01T08:59:29.644Z,21.52
2022-08-01T09:01:58.335Z,21.52
2022-08-01T09:04:27.026Z,21.44
2022-08-01T09:06:55.190Z,21.20
2022-08-01T09:09:23.272Z,21.30
2022-08-01T09:11:57.087Z,21.34
2022-08-01T09:14:28.323Z,21.33
2022-08-01T09:17:09.724Z,21.48
2022-08-01T09:19:49.595Z,21.31
2022-08-01T09:22:19.556Z,21.15
2022-08-01T09:24:59.353Z,21.36
2022-08-01T09:27:27.288Z,21.42
2022-08-01T09:30:01.046Z,21.47
2022-08-01T09:32:35.765Z,21.35
2022-08-01T09:35:30.296Z,21.66
2022-08-01T09:38:16.878Z,21.57
2022-08-01T09:40:58.735Z,21.40
2022-08-01T09:43:32.080Z,20.89
2022-08-01T09:46:00.951Z,20.99
2022-08-01T09:48:29.695Z,20.95
2022-08-01T09:51:03.930Z,21.01
2022-08-01T09:53:51.420Z,21.06
2022-08-01T09:56:21.328Z,20.80
2022-08-01T09:59:01.384Z,20.79
2022-08-01T10:01:42.085Z,20.78
2022-08-01T10:04:11.097Z,20.71
2022-08-01T10:06:41.653Z,20.63
2022-08-01T10:09:08.862Z,20.68
2022-08-01T10:11:40.156Z,20.72
2022-08-01T10:14:08.565Z,20.79
2022-08-01T10:16:40.072Z,20.59
2022-08-01T10:19:11.253Z,20.37
2022-08-01T10:21:58.506Z,20.49
2022-08-01T10:24:28.558Z,20.54
2022-08-01T10:27:09.140Z,20.59
2022-08-01T10:30:19.737Z,20.55
2022-08-01T10:32:54.939Z,20.42
2022-08-01T10:35:45.830Z,20.43
2022-08-01T10:38:13.873Z,20.44
2022-08-01T10:40:43.072Z,20.44
2022-08-01T10:43:21.932Z,20.56
2022-08-01T10:45:50.840Z,20.61
2022-08-01T10:48:33.535Z,20.36
2022-08-01T10:51:17.447Z,20.45
2022-08-01T10:53:53.941Z,20.28
2022-08-01T10:56:27.274Z,19.81
2022-08-01T10:59:06.056Z,19.61
2022-08-01T11:01:44.981Z,19.53
2022-08-01T11:04:17.333Z,19.57
2022-08-01T11:06:55.337Z,19.63
2022-08-01T11:09:37.524Z,19.42
2022-08-01T11:12:24.397Z,19.22
2022-08-01T11:15:02.980Z,19.01
2022-08-01T11:17:42.155Z,19.05
2022-08-01T11:20:18.064Z,18.93
2022-08-01T11:23:06.970Z,19.12
2022-08-01T11:26:05.386Z,19.01
2022-08-01T11:28:32.810Z,19.06
2022-08-01T11:31:11.121Z,19.22
2022-08-01T11:33:41.848Z,19.02
2022-08-01T11:36:12.247Z,19.06
2022-08-01T11:38:41.077Z,18.98
2022-08-01T11:41:14.115Z,19.30
2022-08-01T11:43:59.197Z,19.39
2022-08-01T11:46:48.384Z,19.59
2022-08-01T11:49:33.752Z,19.84
2022-08-01T11:52:35.422Z,20.26
2022-08-01T11:55:02.312Z,20.29
2022-08-01T11:57:34.070Z,20.48
2022-08-01T12:00:24.447Z,20.34
2022-08-01T12:03:06.114Z,20.20
2022-08-01T12:05:43.072Z,20.26
2022-08-01T12:08:10.261Z,20.09
2022-08-01T12:10:49.555Z,20.35
2022-08-01T12:13:19.149Z,20.47
2022-08-01T12:15:47.546Z,20.75
2022-08-01T12:18:15.256Z,20.65
2022-08-01T12:20:56.060Z,20.48
2022-08-01T12:23:23.924Z,20.26
2022-08-01T12:25:54.389Z,20.39
2022-08-01T12:28:21.438Z,20.42
2022-08-01T12:30:50.062Z,20.41
2022-08-01T12:33:21.693Z,20.49
2022-08-01T12:35:48.693Z,20.63
2022-08-01T12:38:18.389Z,21.16
2022-08-01T12:40:52.902Z,21.73
2022-08-01T12:43:27.922Z,22.81
2022-08-01T12:45:59.305Z,23.02
2022-08-01T12:48:26.724Z,23.84
2022-08-01T12:50:55.046Z,24.38
2022-08-01T12:53:22.837Z,24.26
2022-08-01T12:55:59.648Z,24.68
2022-08-01T12:58:34.149Z,24.87
2022-08-01T13:01:09.653Z,25.08
2022-08-01T13:03:36.730Z,25.20
2022-08-01T13:06:13.236Z,25.60
2022-08-01T13:08:40.219Z,25.47
2022-08-01T13:11:18.188Z,25.80
2022-08-01T13:13:50.276Z,25.45
2022-08-01T13:16:30.854Z,24.92
2022-08-01T13:19:06.413Z,25.43
2022-08-01T13:21:53.162Z,25.77
2022-08-01T13:24:28.231Z,26.36
2022-08-01T13:26:59.445Z,26.23
2022-08-01T13:29:42.472Z,26.80
2022-08-01T13:32:27.555Z,26.75
2022-08-01T13:35:04.200Z,26.64
2022-08-01T13:37:31.002Z,26.30
2022-08-01T13:39:59.887Z,26.79
2022-08-01T13:42:26.686Z,26.67
2022-08-01T13:44:53.416Z,27.15
2022-08-01T13:47:31.199Z,26.90
2022-08-01T13:50:03.895Z,26.57
2022-08-01T13:52:31.703Z,26.79
2022-08-01T13:55:02.095Z,26.76
2022-08-01T13:57:36.420Z,26.54
2022-08-01T14:00:09.516Z,26.32
2022-08-01T14:02:36.529Z,27.26
2022-08-01T14:05:03.791Z,27.21
2022-08-01T14:07:30.561Z,26.47
2022-08-01T14:10:18.017Z,26.81
2022-08-01T14:12:45.832Z,27.02
2022-08-01T14:15:12.714Z,26.76
2022-08-01T14:17:40.683Z,26.97
2022-08-01T14:20:16.113Z,26.34
2022-08-01T14:22:43.014Z,26.67
2022-08-01T14:25:09.905Z,26.62
2022-08-01T14:27:37.264Z,26.53
2022-08-01T14:30:05.209Z,26.54
2022-08-01T14:32:32.366Z,26.52
2022-08-01T14:34:59.134Z,26.35
2022-08-01T14:37:28.781Z,27.09
2022-08-01T14:40:00.475Z,27.05
2022-08-01T14:42:27.380Z,27.22
2022-08-01T14:44:54.399Z,27.44
2022-08-01T14:47:22.533Z,26.80
2022-08-01T14:49:50.527Z,27.19
2022-08-01T14:52:18.099Z,26.94
2022-08-01T14:54:44.834Z,27.45
2022-08-01T14:57:11.731Z,26.93
2022-08-01T14:59:38.676Z,26.54
2022-08-01T15:02:05.700Z,26.33
2022-08-01T15:04:33.113Z,26.95
2022-08-01T15:06:59.986Z,27.21
2022-08-01T15:09:26.823Z,27.39
2022-08-01T15:11:53.659Z,27.05
2022-08-01T15:14:39.156Z,27.16
2022-08-01T15:17:07.659Z,26.52
2022-08-01T15:19:36.901Z,26.51
2022-08-01T15:22:06.547Z,26.69
2022-08-01T15:24:34.153Z,26.75
2022-08-01T15:27:01.108Z,27.25
2022-08-01T15:29:27.948Z,26.53
2022-08-01T15:31:54.790Z,26.57
2022-08-01T15:34:21.804Z,26.78
2022-08-01T15:36:48.905Z,26.32
2022-08-01T15:39:16.354Z,26.83
2022-08-01T15:41:43.321Z,26.85
2022-08-01T15:44:10.428Z,26.26
2022-08-01T15:46:37.317Z,26.60
2022-08-01T15:49:06.397Z,26.78
2022-08-01T15:51:34.204Z,26.11
2022-08-01T15:54:03.854Z,25.53
2022-08-01T15:56:31.402Z,25.83
2022-08-01T15:58:58.708Z,25.72
2022-08-01T16:01:28.530Z,25.83
2022-08-01T16:03:57.260Z,25.61
2022-08-01T16:06:25.389Z,25.48
2022-08-01T16:08:53.025Z,25.22
2022-08-01T16:11:20.307Z,25.12
2022-08-01T16:13:48.984Z,24.89
2022-08-01T16:16:16.929Z,24.82
2022-08-01T16:18:44.871Z,24.48
2022-08-01T16:21:12.528Z,24.34
2022-08-01T16:23:41.567Z,24.16
2022-08-01T16:26:28.023Z,23.52
2022-08-01T16:28:55.499Z,23.47
2022-08-01T16:31:37.588Z,23.30
2022-08-01T16:34:09.589Z,23.32
2022-08-01T16:36:36.446Z,23.08
2022-08-01T16:39:05.501Z,22.64
2022-08-01T16:41:32.360Z,22.40
2022-08-01T16:44:04.497Z,22.32
2022-08-01T16:46:33.441Z,22.22
2022-08-01T16:49:00.461Z,22.21
2022-08-01T16:51:27.645Z,22.07
2022-08-01T16:53:54.412Z,22.03
2022-08-01T16:56:21.596Z,21.77
2022-08-01T16:58:49.732Z,21.51
2022-08-01T17:02:00.690Z,21.58
2022-08-01T17:04:05.253Z,21.50
2022-08-01T17:06:32.103Z,21.40
2022-08-01T17:08:58.943Z,21.38
2022-08-01T17:11:25.784Z,21.32
2022-08-01T17:13:52.878Z,21.43
2022-08-01T17:16:19.947Z,21.42
2022-08-01T17:18:46.839Z,21.31
2022-08-01T17:21:15.261Z,21.29
2022-08-01T17:23:42.015Z,21.04
2022-08-01T17:26:09.050Z,21.15
2022-08-01T17:28:35.873Z,21.06
2022-08-01T17:31:02.602Z,21.02
2022-08-01T17:33:45.723Z,20.96
2022-08-01T17:36:13.688Z,20.91
2022-08-01T17:38:40.574Z,21.16
2022-08-01T17:41:07.336Z,20.85
2022-08-01T17:43:34.167Z,20.81
2022-08-01T17:46:00.998Z,20.81
2022-08-01T17:48:28.317Z,20.74
2022-08-01T17:50:55.434Z,20.55
2022-08-01T17:53:23.973Z,20.58
2022-08-01T17:55:55.860Z,20.71
2022-08-01T17:58:49.224Z,20.48
2022-08-01T18:01:17.764Z,20.28
2022-08-01T18:03:45.360Z,20.13
2022-08-01T18:06:15.567Z,20.17
2022-08-01T18:08:47.466Z,19.97
2022-08-01T18:11:15.848Z,20.04
2022-08-01T18:13:42.804Z,19.99
2022-08-01T18:16:12.861Z,20.03
2022-08-01T18:18:41.399Z,19.92
2022-08-01T18:21:08.585Z,19.77
2022-08-01T18:23:35.792Z,19.66
2022-08-01T18:26:03.621Z,19.61
2022-08-01T18:28:36.547Z,19.50
2022-08-01T18:31:06.215Z,19.40
2022-08-01T18:33:34.076Z,19.42
2022-08-01T18:36:01.888Z,19.22
2022-08-01T18:38:33.845Z,19.08
2022-08-01T18:41:01.947Z,18.89
2022-08-01T18:43:29.068Z,18.92
2022-08-01T18:45:58.849Z,18.82
2022-08-01T18:48:25.557Z,18.68
2022-08-01T18:50:53.905Z,18.73
2022-08-01T18:53:23.671Z,18.59
2022-08-01T18:55:50.767Z,18.61
2022-08-01T18:58:17.732Z,18.51
2022-08-01T19:00:44.694Z,18.49
2022-08-01T19:03:13.083Z,18.24
2022-08-01T19:05:39.961Z,18.10
2022-08-01T19:08:08.235Z,17.96
2022-08-01T19:10:36.882Z,17.88
2022-08-01T19:13:03.925Z,17.76
2022-08-01T19:15:31.142Z,17.63
2022-08-01T19:17:58.073Z,17.53
2022-08-01T19:20:25.220Z,17.46
2022-08-01T19:22:51.961Z,17.44
2022-08-01T19:25:19.031Z,17.33
2022-08-01T19:27:48.553Z,17.19
2022-08-01T19:30:17.575Z,17.09
2022-08-01T19:32:46.338Z,17.04
2022-08-01T19:35:17.424Z,16.95
2022-08-01T19:37:50.844Z,16.84
2022-08-01T19:40:26.865Z,16.93
2022-08-01T19:42:57.362Z,16.79
2022-08-01T19:45:28.622Z,16.64
2022-08-01T19:47:57.781Z,16.62
2022-08-01T19:50:27.201Z,16.54
2022-08-01T19:52:56.096Z,16.50
2022-08-01T19:55:24.692Z,16.37
2022-08-01T20:00:40.876Z,16.27
2022-08-01T20:03:09.121Z,16.21
2022-08-01T20:05:37.397Z,16.20
2022-08-01T20:08:07.014Z,16.26
2022-08-01T20:10:34.220Z,16.16
2022-08-01T20:13:02.255Z,16.15
2022-08-01T20:15:29.309Z,16.07
2022-08-01T20:17:59.625Z,16.00
2022-08-01T20:20:27.603Z,15.92
2022-08-01T20:22:56.787Z,15.90
2022-08-01T20:25:32.042Z,15.85
2022-08-01T20:28:05.683Z,15.78
2022-08-01T20:30:33.034Z,15.84
2022-08-01T20:33:00.099Z,15.75
2022-08-01T20:35:52.850Z,15.69
2022-08-01T20:38:16.328Z,15.60
2022-08-01T20:40:43.810Z,15.57
2022-08-01T20:43:12.356Z,15.58
2022-08-01T20:45:39.468Z,15.57
2022-08-01T20:48:08.085Z,15.46
2022-08-01T20:50:54.943Z,15.46
2022-08-01T20:53:25.199Z,15.34
2022-08-01T20:56:03.210Z,15.33
2022-08-01T20:59:08.868Z,15.31
2022-08-01T21:01:47.391Z,15.24
2022-08-01T21:04:20.381Z,15.12
2022-08-01T21:06:54.867Z,15.04
2022-08-01T21:09:23.962Z,15.03
2022-08-01T21:12:05.256Z,14.99
2022-08-01T21:14:51.248Z,14.89
2022-08-01T21:17:24.676Z,14.87
2022-08-01T21:19:54.934Z,14.78
2022-08-01T21:22:36.526Z,14.83
2022-08-01T21:25:08.265Z,14.70
2022-08-01T21:27:36.174Z,14.67
2022-08-01T21:30:06.711Z,14.57
2022-08-01T21:32:35.008Z,14.53
2022-08-01T21:35:03.925Z,14.50
2022-08-01T21:37:33.497Z,14.56
2022-08-01T21:40:10.040Z,14.50
2022-08-01T21:42:39.632Z,14.42
2022-08-01T21:45:07.970Z,14.32
2022-08-01T21:47:36.456Z,14.23
2022-08-01T21:50:05.202Z,14.23
2022-08-01T21:52:43.819Z,14.17
2022-08-01T21:55:35.030Z,14.18
2022-08-01T21:58:17.169Z,14.19
2022-08-01T22:00:49.792Z,14.14
2022-08-01T22:03:24.361Z,13.99
2022-08-01T22:05:53.818Z,13.96
2022-08-01T22:08:43.110Z,13.97
2022-08-01T22:11:14.441Z,13.90
2022-08-01T22:13:42.112Z,13.80
2022-08-01T22:16:12.704Z,13.76
2022-08-01T22:18:39.819Z,13.90
2022-08-01T22:21:08.087Z,13.81
2022-08-01T22:23:36.758Z,13.67
2022-08-01T22:26:06.961Z,13.71
2022-08-01T22:28:35.943Z,13.71
2022-08-01T22:31:03.716Z,13.70
2022-08-01T22:33:33.875Z,13.62
2022-08-01T22:36:01.127Z,13.55
2022-08-01T22:38:27.888Z,13.52
2022-08-01T22:41:05.413Z,13.53
2022-08-01T22:44:08.366Z,13.49
2022-08-01T22:46:53.867Z,13.53
2022-08-01T22:49:34.648Z,13.54
2022-08-01T22:52:13.157Z,13.53
2022-08-01T22:54:41.510Z,13.55
2022-08-01T22:57:20.445Z,13.48
2022-08-01T23:00:01.877Z,13.39
2022-08-01T23:02:30.668Z,13.46
2022-08-01T23:05:05.150Z,13.41
2022-08-01T23:07:39.010Z,13.40
2022-08-01T23:10:08.510Z,13.40
2022-08-01T23:12:37.678Z,13.38
2022-08-01T23:15:05.081Z,13.40
2022-08-01T23:17:32.038Z,13.39
2022-08-01T23:20:05.114Z,13.41
2022-08-01T23:22:34.550Z,13.44
2022-08-01T23:25:06.497Z,13.43
2022-08-01T23:27:51.830Z,13.34
2022-08-01T23:30:27.030Z,13.27
2022-08-01T23:32:54.961Z,13.38
2022-08-01T23:35:21.687Z,13.32
2022-08-01T23:37:50.837Z,13.31
2022-08-01T23:40:18.276Z,13.22
2022-08-01T23:42:45.487Z,13.19
2022-08-01T23:45:12.263Z,13.18
2022-08-01T23:47:39.131Z,13.21
2022-08-01T23:50:07.788Z,13.16
2022-08-01T23:52:36.866Z,13.21
2022-08-01T23:55:15.681Z,13.17
2022-08-01T23:57:43.165Z,13.10
